createdAt,value
2017-08-20T00:00:28.703Z,1006.16
2017-08-20T00:01:30.711Z,1006.16
2017-08-20T00:02:32.666Z,1006.13
2017-08-20T00:03:34.959Z,1006.14
2017-08-20T00:04:37.218Z,1006.15
2017-08-20T00:05:39.194Z,1006.17
2017-08-20T00:06:41.520Z,1006.21
2017-08-20T00:07:43.796Z,1006.23
2017-08-20T00:08:46.021Z,1006.27
2017-08-20T00:09:47.449Z,1006.19
2017-08-20T00:10:49.655Z,1006.18
2017-08-20T00:11:51.825Z,1006.20
2017-08-20T00:12:53.819Z,1006.17
2017-08-20T00:13:56.165Z,1006.20
2017-08-20T00:14:58.368Z,1006.18
2017-08-20T00:16:00.412Z,1006.20
2017-08-20T00:17:02.395Z,1006.19
2017-08-20T00:18:04.809Z,1006.17
2017-08-20T00:19:06.238Z,1006.16
2017-08-20T00:20:08.657Z,1006.15
2017-08-20T00:21:10.837Z,1006.14
2017-08-20T00:22:12.900Z,1006.17
2017-08-20T00:23:14.871Z,1006.19
2017-08-20T00:24:17.283Z,1006.15
2017-08-20T00:25:18.717Z,1006.18
2017-08-20T00:26:20.141Z,1006.12
2017-08-20T00:27:21.561Z,1006.14
2017-08-20T00:28:22.993Z,1006.20
2017-08-20T00:29:24.406Z,1006.19
2017-08-20T00:30:25.832Z,1006.22
2017-08-20T00:31:27.255Z,1006.20
2017-08-20T00:32:28.719Z,1006.20
2017-08-20T00:33:30.149Z,1006.18
2017-08-20T00:34:31.579Z,1006.21
2017-08-20T00:35:32.992Z,1006.17
2017-08-20T00:36:34.566Z,1006.22
2017-08-20T00:37:35.991Z,1006.19
2017-08-20T00:38:37.407Z,1006.25
2017-08-20T00:39:38.832Z,1006.28
2017-08-20T00:40:40.254Z,1006.27
2017-08-20T00:41:41.686Z,1006.27
2017-08-20T00:42:43.119Z,1006.28
2017-08-20T00:43:44.539Z,1006.24
2017-08-20T00:44:45.965Z,1006.30
2017-08-20T00:45:47.389Z,1006.29
2017-08-20T00:46:48.810Z,1006.30
2017-08-20T00:47:50.238Z,1006.31
2017-08-20T00:48:51.670Z,1006.34
2017-08-20T00:49:53.110Z,1006.32
2017-08-20T00:50:54.528Z,1006.35
2017-08-20T00:51:55.949Z,1006.34
2017-08-20T00:52:57.367Z,1006.34
2017-08-20T00:53:58.794Z,1006.34
2017-08-20T00:55:00.213Z,1006.32
2017-08-20T00:56:01.642Z,1006.36
2017-08-20T00:57:03.066Z,1006.40
2017-08-20T00:58:04.491Z,1006.38
2017-08-20T00:59:05.911Z,1006.40
2017-08-20T01:00:07.346Z,1006.41
2017-08-20T01:01:08.769Z,1006.40
2017-08-20T01:02:10.193Z,1006.38
2017-08-20T01:03:11.626Z,1006.38
2017-08-20T01:04:13.045Z,1006.36
2017-08-20T01:05:14.471Z,1006.32
2017-08-20T01:06:15.890Z,1006.35
2017-08-20T01:07:17.314Z,1006.31
2017-08-20T01:08:18.739Z,1006.30
2017-08-20T01:09:20.166Z,1006.32
2017-08-20T01:10:21.601Z,1006.36
2017-08-20T01:11:23.023Z,1006.39
2017-08-20T01:12:24.448Z,1006.41
2017-08-20T01:13:25.871Z,1006.39
2017-08-20T01:14:27.288Z,1006.37
2017-08-20T01:15:28.705Z,1006.43
2017-08-20T01:16:30.129Z,1006.37
2017-08-20T01:17:31.549Z,1006.43
2017-08-20T01:18:32.967Z,1006.42
2017-08-20T01:19:34.414Z,1006.36
2017-08-20T01:20:35.828Z,1006.43
2017-08-20T01:21:37.254Z,1006.45
2017-08-20T01:22:38.679Z,1006.39
2017-08-20T01:23:40.138Z,1006.41
2017-08-20T01:24:41.559Z,1006.44
2017-08-20T01:25:42.978Z,1006.47
2017-08-20T01:26:44.397Z,1006.49
2017-08-20T01:27:45.823Z,1006.54
2017-08-20T01:28:47.246Z,1006.54
2017-08-20T01:29:48.680Z,1006.52
2017-08-20T01:30:50.100Z,1006.55
2017-08-20T01:31:51.526Z,1006.56
2017-08-20T01:32:52.942Z,1006.54
2017-08-20T01:33:54.371Z,1006.55
2017-08-20T01:34:55.788Z,1006.62
2017-08-20T01:35:57.301Z,1006.60
2017-08-20T01:36:58.737Z,1006.63
2017-08-20T01:38:00.169Z,1006.68
2017-08-20T01:39:01.588Z,1006.66
2017-08-20T01:40:03.020Z,1006.66
2017-08-20T01:41:04.436Z,1006.62
2017-08-20T01:42:05.868Z,1006.68
2017-08-20T01:43:07.293Z,1006.71
2017-08-20T01:44:08.735Z,1006.70
2017-08-20T01:45:10.155Z,1006.66
2017-08-20T01:46:11.583Z,1006.62
2017-08-20T01:47:13.005Z,1006.65
2017-08-20T01:48:14.435Z,1006.70
2017-08-20T01:49:15.861Z,1006.67
2017-08-20T01:50:17.285Z,1006.68
2017-08-20T01:51:18.711Z,1006.69
2017-08-20T01:52:20.129Z,1006.69
2017-08-20T01:53:21.547Z,1006.63
2017-08-20T01:54:22.974Z,1006.67
2017-08-20T01:55:24.398Z,1006.66
2017-08-20T01:56:25.824Z,1006.67
2017-08-20T01:57:27.246Z,1006.67
2017-08-20T01:58:28.679Z,1006.63
2017-08-20T01:59:30.102Z,1006.64
2017-08-20T02:00:31.519Z,1006.68
2017-08-20T02:01:32.948Z,1006.66
2017-08-20T02:02:34.376Z,1006.72
2017-08-20T02:03:35.801Z,1006.71
2017-08-20T02:04:37.218Z,1006.70
2017-08-20T02:05:38.641Z,1006.76
2017-08-20T02:06:40.069Z,1006.78
2017-08-20T02:07:41.492Z,1006.77
2017-08-20T02:08:42.920Z,1006.74
2017-08-20T02:09:44.350Z,1006.75
2017-08-20T02:10:45.777Z,1006.78
2017-08-20T02:11:47.198Z,1006.80
2017-08-20T02:12:48.621Z,1006.81
2017-08-20T02:13:50.053Z,1006.78
2017-08-20T02:14:51.481Z,1006.79
2017-08-20T02:15:52.910Z,1006.79
2017-08-20T02:16:54.332Z,1006.87
2017-08-20T02:17:55.748Z,1006.87
2017-08-20T02:18:57.180Z,1006.86
2017-08-20T02:19:58.597Z,1006.91
2017-08-20T02:21:00.017Z,1006.92
2017-08-20T02:22:01.438Z,1006.88
2017-08-20T02:23:02.858Z,1006.85
2017-08-20T02:24:04.282Z,1006.82
2017-08-20T02:25:05.700Z,1006.85
2017-08-20T02:26:07.122Z,1006.83
2017-08-20T02:27:08.542Z,1006.86
2017-08-20T02:28:09.978Z,1006.86
2017-08-20T02:29:11.396Z,1006.89
2017-08-20T02:30:12.825Z,1006.84
2017-08-20T02:31:14.266Z,1006.85
2017-08-20T02:32:15.667Z,1006.87
2017-08-20T02:33:17.096Z,1006.84
2017-08-20T02:34:18.550Z,1006.82
2017-08-20T02:35:19.974Z,1006.82
2017-08-20T02:36:21.398Z,1006.79
2017-08-20T02:37:22.817Z,1006.75
2017-08-20T02:38:24.240Z,1006.74
2017-08-20T02:39:25.663Z,1006.70
2017-08-20T02:40:27.092Z,1006.75
2017-08-20T02:41:28.508Z,1006.73
2017-08-20T02:42:29.937Z,1006.74
2017-08-20T02:43:31.363Z,1006.72
2017-08-20T02:44:32.785Z,1006.79
2017-08-20T02:45:34.207Z,1006.83
2017-08-20T02:46:35.630Z,1006.80
2017-08-20T02:47:37.051Z,1006.85
2017-08-20T02:48:38.476Z,1006.84
2017-08-20T02:49:39.905Z,1006.83
2017-08-20T02:50:41.330Z,1006.82
2017-08-20T02:51:42.755Z,1006.86
2017-08-20T02:52:44.178Z,1006.81
2017-08-20T02:53:45.603Z,1006.84
2017-08-20T02:54:47.020Z,1006.77
2017-08-20T02:55:48.451Z,1006.81
2017-08-20T02:56:49.873Z,1006.78
2017-08-20T02:57:51.303Z,1006.81
2017-08-20T02:58:52.720Z,1006.86
2017-08-20T02:59:54.165Z,1006.83
2017-08-20T03:00:55.567Z,1006.84
2017-08-20T03:01:56.996Z,1006.88
2017-08-20T03:02:58.417Z,1006.90
2017-08-20T03:03:59.839Z,1006.89
2017-08-20T03:05:01.259Z,1006.91
2017-08-20T03:06:02.690Z,1006.84
2017-08-20T03:07:04.114Z,1006.89
2017-08-20T03:08:05.529Z,1006.85
2017-08-20T03:09:06.965Z,1006.87
2017-08-20T03:10:08.388Z,1006.82
2017-08-20T03:11:09.813Z,1006.86
2017-08-20T03:12:11.244Z,1006.88
2017-08-20T03:13:12.676Z,1006.92
2017-08-20T03:14:14.100Z,1006.87
2017-08-20T03:15:15.521Z,1006.93
2017-08-20T03:16:16.956Z,1006.94
2017-08-20T03:17:18.373Z,1006.90
2017-08-20T03:18:19.795Z,1006.95
2017-08-20T03:19:21.217Z,1006.94
2017-08-20T03:20:22.641Z,1006.96
2017-08-20T03:21:24.058Z,1006.91
2017-08-20T03:22:25.480Z,1006.95
2017-08-20T03:23:26.903Z,1006.92
2017-08-20T03:24:28.330Z,1006.91
2017-08-20T03:25:29.758Z,1006.90
2017-08-20T03:26:31.177Z,1006.96
2017-08-20T03:27:32.654Z,1006.94
2017-08-20T03:28:34.075Z,1006.96
2017-08-20T03:29:35.504Z,1006.94
2017-08-20T03:30:36.932Z,1006.93
2017-08-20T03:31:38.353Z,1006.92
2017-08-20T03:32:39.778Z,1006.92
2017-08-20T03:33:41.201Z,1006.91
2017-08-20T03:34:42.624Z,1006.96
2017-08-20T03:35:44.047Z,1006.89
2017-08-20T03:36:45.467Z,1006.92
2017-08-20T03:37:46.891Z,1006.94
2017-08-20T03:38:48.312Z,1006.86
2017-08-20T03:39:49.730Z,1006.89
2017-08-20T03:40:51.151Z,1006.90
2017-08-20T03:41:52.571Z,1006.85
2017-08-20T03:42:54.004Z,1006.92
2017-08-20T03:43:55.431Z,1006.86
2017-08-20T03:44:56.850Z,1006.90
2017-08-20T03:45:58.273Z,1006.83
2017-08-20T03:46:59.695Z,1006.89
2017-08-20T03:48:01.122Z,1006.88
2017-08-20T03:49:02.543Z,1006.90
2017-08-20T03:50:03.969Z,1006.89
2017-08-20T03:51:05.386Z,1006.93
2017-08-20T03:52:06.809Z,1006.94
2017-08-20T03:53:08.227Z,1007.02
2017-08-20T03:54:09.678Z,1006.97
2017-08-20T03:55:11.094Z,1007.02
2017-08-20T03:56:12.519Z,1007.05
2017-08-20T03:57:13.947Z,1007.05
2017-08-20T03:58:15.369Z,1007.07
2017-08-20T03:59:16.792Z,1007.12
2017-08-20T04:00:18.212Z,1007.14
2017-08-20T04:01:19.640Z,1007.10
2017-08-20T04:02:21.058Z,1007.09
2017-08-20T04:03:22.493Z,1007.13
2017-08-20T04:04:23.912Z,1007.16
2017-08-20T04:05:25.340Z,1007.11
2017-08-20T04:06:26.758Z,1007.14
2017-08-20T04:07:28.180Z,1007.14
2017-08-20T04:08:29.617Z,1007.13
2017-08-20T04:09:31.035Z,1007.14
2017-08-20T04:10:32.459Z,1007.14
2017-08-20T04:11:33.875Z,1007.14
2017-08-20T04:12:35.313Z,1007.10
2017-08-20T04:13:36.739Z,1007.15
2017-08-20T04:14:38.164Z,1007.16
2017-08-20T04:15:39.587Z,1007.19
2017-08-20T04:16:41.011Z,1007.19
2017-08-20T04:17:42.442Z,1007.19
2017-08-20T04:18:43.864Z,1007.21
2017-08-20T04:19:45.276Z,1007.24
2017-08-20T04:20:46.698Z,1007.28
2017-08-20T04:21:48.131Z,1007.22
2017-08-20T04:22:49.557Z,1007.26
2017-08-20T04:23:50.984Z,1007.24
2017-08-20T04:24:52.412Z,1007.30
2017-08-20T04:25:53.830Z,1007.26
2017-08-20T04:26:55.250Z,1007.28
2017-08-20T04:27:56.682Z,1007.27
2017-08-20T04:28:58.110Z,1007.27
2017-08-20T04:29:59.532Z,1007.28
2017-08-20T04:31:00.950Z,1007.27
2017-08-20T04:32:02.374Z,1007.30
2017-08-20T04:33:03.797Z,1007.29
2017-08-20T04:34:05.224Z,1007.31
2017-08-20T04:35:06.653Z,1007.32
2017-08-20T04:36:08.083Z,1007.28
2017-08-20T04:37:09.505Z,1007.30
2017-08-20T04:38:10.934Z,1007.33
2017-08-20T04:39:12.360Z,1007.33
2017-08-20T04:40:13.789Z,1007.37
2017-08-20T04:41:15.209Z,1007.35
2017-08-20T04:42:16.627Z,1007.37
2017-08-20T04:43:18.055Z,1007.39
2017-08-20T04:44:19.483Z,1007.41
2017-08-20T04:45:20.902Z,1007.43
2017-08-20T04:46:22.333Z,1007.40
2017-08-20T04:47:23.748Z,1007.44
2017-08-20T04:48:25.177Z,1007.41
2017-08-20T04:49:26.597Z,1007.40
2017-08-20T04:50:28.021Z,1007.39
2017-08-20T04:51:29.448Z,1007.47
2017-08-20T04:52:30.876Z,1007.47
2017-08-20T04:53:32.300Z,1007.48
2017-08-20T04:54:33.735Z,1007.48
2017-08-20T04:55:35.165Z,1007.54
2017-08-20T04:56:36.592Z,1007.54
2017-08-20T04:57:38.017Z,1007.56
2017-08-20T04:58:39.444Z,1007.53
2017-08-20T04:59:40.870Z,1007.61
2017-08-20T05:00:42.291Z,1007.62
2017-08-20T05:01:43.728Z,1007.62
2017-08-20T05:02:45.153Z,1007.64
2017-08-20T05:03:46.575Z,1007.62
2017-08-20T05:04:48.001Z,1007.59
2017-08-20T05:05:49.433Z,1007.59
2017-08-20T05:06:50.860Z,1007.63
2017-08-20T05:07:52.284Z,1007.62
2017-08-20T05:08:53.712Z,1007.60
2017-08-20T05:09:55.145Z,1007.64
2017-08-20T05:10:56.581Z,1007.66
2017-08-20T05:11:58.008Z,1007.62
2017-08-20T05:12:59.438Z,1007.54
2017-08-20T05:14:00.865Z,1007.61
2017-08-20T05:15:02.287Z,1007.63
2017-08-20T05:16:03.714Z,1007.61
2017-08-20T05:17:05.136Z,1007.58
2017-08-20T05:18:06.561Z,1007.57
2017-08-20T05:19:07.986Z,1007.55
2017-08-20T05:20:09.414Z,1007.56
2017-08-20T05:21:10.832Z,1007.56
2017-08-20T05:22:12.251Z,1007.56
2017-08-20T05:23:13.688Z,1007.56
2017-08-20T05:24:15.116Z,1007.58
2017-08-20T05:25:16.542Z,1007.59
2017-08-20T05:26:17.966Z,1007.58
2017-08-20T05:27:19.391Z,1007.57
2017-08-20T05:28:20.818Z,1007.59
2017-08-20T05:29:22.239Z,1007.66
2017-08-20T05:30:23.669Z,1007.66
2017-08-20T05:31:25.094Z,1007.64
2017-08-20T05:32:26.527Z,1007.60
2017-08-20T05:33:27.956Z,1007.64
2017-08-20T05:34:29.384Z,1007.67
2017-08-20T05:35:30.817Z,1007.65
2017-08-20T05:36:32.241Z,1007.68
2017-08-20T05:37:33.673Z,1007.68
2017-08-20T05:38:35.096Z,1007.64
2017-08-20T05:39:36.527Z,1007.66
2017-08-20T05:40:37.950Z,1007.67
2017-08-20T05:41:39.375Z,1007.63
2017-08-20T05:42:40.791Z,1007.62
2017-08-20T05:43:42.223Z,1007.63
2017-08-20T05:44:43.652Z,1007.62
2017-08-20T05:45:45.075Z,1007.66
2017-08-20T05:46:46.504Z,1007.66
2017-08-20T05:47:47.925Z,1007.64
2017-08-20T05:48:49.352Z,1007.60
2017-08-20T05:49:50.779Z,1007.62
2017-08-20T05:50:52.200Z,1007.63
2017-08-20T05:51:53.627Z,1007.67
2017-08-20T05:52:55.055Z,1007.66
2017-08-20T05:53:56.479Z,1007.69
2017-08-20T05:54:57.907Z,1007.66
2017-08-20T05:55:59.340Z,1007.67
2017-08-20T05:57:00.769Z,1007.70
2017-08-20T05:58:02.195Z,1007.73
2017-08-20T05:59:03.619Z,1007.71
2017-08-20T06:00:05.064Z,1007.75
2017-08-20T06:01:06.490Z,1007.78
2017-08-20T06:02:07.918Z,1007.77
2017-08-20T06:03:09.354Z,1007.77
2017-08-20T06:04:10.786Z,1007.78
2017-08-20T06:05:12.211Z,1007.83
2017-08-20T06:06:13.644Z,1007.89
2017-08-20T06:07:15.112Z,1007.91
2017-08-20T06:08:16.541Z,1007.87
2017-08-20T06:09:17.973Z,1007.86
2017-08-20T06:10:19.403Z,1007.91
2017-08-20T06:11:20.838Z,1007.91
2017-08-20T06:12:22.261Z,1007.93
2017-08-20T06:13:23.683Z,1008.00
2017-08-20T06:14:25.120Z,1007.98
2017-08-20T06:15:26.537Z,1007.99
2017-08-20T06:16:27.966Z,1007.99
2017-08-20T06:17:29.390Z,1008.01
2017-08-20T06:18:30.822Z,1008.03
2017-08-20T06:19:32.246Z,1008.06
2017-08-20T06:20:33.681Z,1008.04
2017-08-20T06:21:35.130Z,1008.04
2017-08-20T06:22:36.620Z,1008.08
2017-08-20T06:23:38.045Z,1008.09
2017-08-20T06:24:39.479Z,1008.09
2017-08-20T06:25:40.907Z,1008.13
2017-08-20T06:26:42.335Z,1008.16
2017-08-20T06:27:43.765Z,1008.13
2017-08-20T06:28:45.191Z,1008.15
2017-08-20T06:29:46.617Z,1008.14
2017-08-20T06:30:48.039Z,1008.17
2017-08-20T06:31:49.470Z,1008.12
2017-08-20T06:32:51.043Z,1008.12
2017-08-20T06:33:52.462Z,1008.20
2017-08-20T06:34:53.891Z,1008.13
2017-08-20T06:35:55.312Z,1008.16
2017-08-20T06:36:56.742Z,1008.18
2017-08-20T06:37:58.164Z,1008.16
2017-08-20T06:38:59.586Z,1008.13
2017-08-20T06:40:01.032Z,1008.19
2017-08-20T06:41:02.459Z,1008.23
2017-08-20T06:42:03.884Z,1008.24
2017-08-20T06:43:05.308Z,1008.28
2017-08-20T06:44:06.739Z,1008.31
2017-08-20T06:45:08.188Z,1008.26
2017-08-20T06:46:09.614Z,1008.28
2017-08-20T06:47:11.077Z,1008.31
2017-08-20T06:48:12.474Z,1008.31
2017-08-20T06:49:13.900Z,1008.32
2017-08-20T06:50:15.328Z,1008.25
2017-08-20T06:51:16.757Z,1008.26
2017-08-20T06:52:18.191Z,1008.28
2017-08-20T06:53:19.611Z,1008.27
2017-08-20T06:54:21.041Z,1008.26
2017-08-20T06:55:22.468Z,1008.29
2017-08-20T06:56:23.887Z,1008.28
2017-08-20T06:57:25.310Z,1008.29
2017-08-20T06:58:26.746Z,1008.32
2017-08-20T06:59:28.172Z,1008.34
2017-08-20T07:00:29.603Z,1008.34
2017-08-20T07:01:31.029Z,1008.38
2017-08-20T07:02:32.461Z,1008.37
2017-08-20T07:03:34.369Z,1008.42
2017-08-20T07:04:35.258Z,1008.43
2017-08-20T07:05:36.688Z,1008.45
2017-08-20T07:06:38.110Z,1008.44
2017-08-20T07:07:39.537Z,1008.41
2017-08-20T07:08:40.973Z,1008.42
2017-08-20T07:09:42.403Z,1008.47
2017-08-20T07:10:43.833Z,1008.47
2017-08-20T07:11:45.255Z,1008.52
2017-08-20T07:12:46.683Z,1008.48
2017-08-20T07:13:48.107Z,1008.52
2017-08-20T07:14:49.541Z,1008.58
2017-08-20T07:15:50.965Z,1008.55
2017-08-20T07:16:52.388Z,1008.50
2017-08-20T07:17:53.812Z,1008.47
2017-08-20T07:18:55.243Z,1008.52
2017-08-20T07:19:56.674Z,1008.53
2017-08-20T07:20:58.102Z,1008.61
2017-08-20T07:21:59.531Z,1008.59
2017-08-20T07:23:00.959Z,1008.60
2017-08-20T07:24:02.407Z,1008.57
2017-08-20T07:25:03.841Z,1008.60
2017-08-20T07:26:05.272Z,1008.56
2017-08-20T07:27:06.706Z,1008.59
2017-08-20T07:28:08.128Z,1008.59
2017-08-20T07:29:09.551Z,1008.59
2017-08-20T07:30:10.980Z,1008.55
2017-08-20T07:31:12.413Z,1008.58
2017-08-20T07:32:13.854Z,1008.58
2017-08-20T07:33:15.284Z,1008.63
2017-08-20T07:34:16.716Z,1008.61
2017-08-20T07:35:18.145Z,1008.63
2017-08-20T07:36:19.571Z,1008.57
2017-08-20T07:37:21.002Z,1008.61
2017-08-20T07:38:22.425Z,1008.59
2017-08-20T07:39:23.853Z,1008.59
2017-08-20T07:40:25.281Z,1008.57
2017-08-20T07:41:26.707Z,1008.59
2017-08-20T07:42:28.137Z,1008.61
2017-08-20T07:43:29.564Z,1008.62
2017-08-20T07:44:30.993Z,1008.66
2017-08-20T07:45:32.416Z,1008.62
2017-08-20T07:46:33.838Z,1008.69
2017-08-20T07:47:35.262Z,1008.67
2017-08-20T07:48:36.691Z,1008.73
2017-08-20T07:49:38.127Z,1008.67
2017-08-20T07:50:39.552Z,1008.71
2017-08-20T07:51:40.985Z,1008.74
2017-08-20T07:52:42.421Z,1008.81
2017-08-20T07:53:43.853Z,1008.79
2017-08-20T07:54:45.273Z,1008.76
2017-08-20T07:55:46.695Z,1008.85
2017-08-20T07:56:48.120Z,1008.84
2017-08-20T07:57:49.544Z,1008.85
2017-08-20T07:58:50.966Z,1008.85
2017-08-20T07:59:52.406Z,1008.90
2017-08-20T08:00:53.831Z,1008.84
2017-08-20T08:01:55.269Z,1008.84
2017-08-20T08:02:56.703Z,1008.89
2017-08-20T08:03:58.137Z,1008.87
2017-08-20T08:04:59.561Z,1008.79
2017-08-20T08:06:00.992Z,1008.86
2017-08-20T08:07:02.428Z,1008.80
2017-08-20T08:08:03.853Z,1008.87
2017-08-20T08:09:05.288Z,1008.86
2017-08-20T08:10:06.716Z,1008.84
2017-08-20T08:11:08.141Z,1008.87
2017-08-20T08:12:09.564Z,1008.86
2017-08-20T08:13:10.993Z,1008.90
2017-08-20T08:14:12.425Z,1008.87
2017-08-20T08:15:13.868Z,1008.85
2017-08-20T08:16:15.290Z,1008.86
2017-08-20T08:17:16.719Z,1008.89
2017-08-20T08:18:18.167Z,1008.90
2017-08-20T08:19:19.592Z,1008.92
2017-08-20T08:20:21.020Z,1008.97
2017-08-20T08:21:22.459Z,1009.13
2017-08-20T08:22:23.890Z,1009.24
2017-08-20T08:23:25.322Z,1009.17
2017-08-20T08:24:26.751Z,1009.10
2017-08-20T08:25:28.183Z,1009.12
2017-08-20T08:26:29.611Z,1009.08
2017-08-20T08:27:31.049Z,1009.23
2017-08-20T08:28:32.481Z,1009.22
2017-08-20T08:29:33.908Z,1009.20
2017-08-20T08:30:35.331Z,1009.22
2017-08-20T08:31:36.760Z,1009.19
2017-08-20T08:32:38.201Z,1009.23
2017-08-20T08:33:39.631Z,1009.12
2017-08-20T08:34:41.067Z,1009.18
2017-08-20T08:35:42.494Z,1009.12
2017-08-20T08:36:43.927Z,1009.18
2017-08-20T08:37:45.359Z,1009.22
2017-08-20T08:38:46.819Z,1009.17
2017-08-20T08:39:48.259Z,1009.24
2017-08-20T08:40:49.688Z,1009.38
2017-08-20T08:41:51.121Z,1009.47
2017-08-20T08:42:52.642Z,1009.49
2017-08-20T08:43:54.075Z,1009.56
2017-08-20T08:44:55.500Z,1009.66
2017-08-20T08:45:56.927Z,1009.75
2017-08-20T08:46:58.366Z,1009.69
2017-08-20T08:47:59.792Z,1009.65
2017-08-20T08:49:01.244Z,1009.48
2017-08-20T08:50:02.716Z,1009.58
2017-08-20T08:51:04.141Z,1009.62
2017-08-20T08:52:05.572Z,1009.57
2017-08-20T08:53:07.063Z,1009.54
2017-08-20T08:54:08.500Z,1009.67
2017-08-20T08:55:09.945Z,1009.80
2017-08-20T08:56:11.374Z,1009.61
2017-08-20T08:57:12.814Z,1009.79
2017-08-20T08:58:14.238Z,1009.83
2017-08-20T08:59:15.673Z,1009.87
2017-08-20T09:00:17.104Z,1009.86
2017-08-20T09:01:18.533Z,1009.95
2017-08-20T09:02:19.967Z,1009.92
2017-08-20T09:03:21.404Z,1010.15
2017-08-20T09:04:22.856Z,1010.11
2017-08-20T09:05:24.260Z,1010.07
2017-08-20T09:06:25.699Z,1010.03
2017-08-20T09:07:27.135Z,1010.12
2017-08-20T09:08:28.562Z,1010.20
2017-08-20T09:09:29.997Z,1010.35
2017-08-20T09:10:31.450Z,1010.27
2017-08-20T09:11:32.863Z,1010.11
2017-08-20T09:12:34.292Z,1010.17
2017-08-20T09:13:35.745Z,1010.19
2017-08-20T09:14:37.153Z,1010.12
2017-08-20T09:15:38.585Z,1009.99
2017-08-20T09:16:40.019Z,1010.14
2017-08-20T09:17:41.454Z,1010.29
2017-08-20T09:18:42.883Z,1010.46
2017-08-20T09:19:44.317Z,1010.42
2017-08-20T09:20:45.795Z,1010.31
2017-08-20T09:21:47.229Z,1010.50
2017-08-20T09:22:48.665Z,1010.48
2017-08-20T09:23:50.095Z,1010.44
2017-08-20T09:24:51.533Z,1010.47
2017-08-20T09:25:52.962Z,1010.47
2017-08-20T09:26:54.393Z,1010.40
2017-08-20T09:27:55.841Z,1010.43
2017-08-20T09:28:57.274Z,1010.47
2017-08-20T09:29:58.704Z,1010.61
2017-08-20T09:31:00.143Z,1010.51
2017-08-20T09:32:01.571Z,1010.53
2017-08-20T09:33:03.014Z,1010.62
2017-08-20T09:34:04.441Z,1010.61
2017-08-20T09:35:05.873Z,1010.62
2017-08-20T09:36:07.461Z,1010.63
2017-08-20T09:37:08.896Z,1010.63
2017-08-20T09:38:10.335Z,1010.68
2017-08-20T09:39:11.763Z,1010.78
2017-08-20T09:40:13.195Z,1010.84
2017-08-20T09:41:14.640Z,1010.85
2017-08-20T09:42:16.068Z,1010.74
2017-08-20T09:43:17.509Z,1010.82
2017-08-20T09:44:18.935Z,1010.84
2017-08-20T09:45:20.386Z,1010.76
2017-08-20T09:46:21.820Z,1010.77
2017-08-20T09:47:23.256Z,1010.86
2017-08-20T09:48:24.690Z,1010.74
2017-08-20T09:49:26.125Z,1010.84
2017-08-20T09:50:27.556Z,1010.85
2017-08-20T09:51:28.994Z,1010.83
2017-08-20T09:52:30.424Z,1010.85
2017-08-20T09:53:31.857Z,1010.87
2017-08-20T09:54:33.288Z,1010.87
2017-08-20T09:55:34.714Z,1010.85
2017-08-20T09:56:36.225Z,1010.92
2017-08-20T09:57:38.287Z,1010.90
2017-08-20T09:58:39.723Z,1010.98
2017-08-20T09:59:41.152Z,1010.93
2017-08-20T10:00:42.591Z,1010.89
2017-08-20T10:01:44.031Z,1010.82
2017-08-20T10:02:45.457Z,1010.86
2017-08-20T10:03:46.895Z,1010.90
2017-08-20T10:04:48.339Z,1010.94
2017-08-20T10:05:49.773Z,1010.85
2017-08-20T10:06:51.215Z,1010.85
2017-08-20T10:07:52.653Z,1010.91
2017-08-20T10:08:54.083Z,1010.85
2017-08-20T10:09:55.514Z,1010.84
2017-08-20T10:10:56.947Z,1010.69
2017-08-20T10:11:58.387Z,1010.77
2017-08-20T10:12:59.817Z,1010.78
2017-08-20T10:14:01.246Z,1010.75
2017-08-20T10:15:02.676Z,1010.75
2017-08-20T10:16:04.114Z,1010.44
2017-08-20T10:17:05.544Z,1010.72
2017-08-20T10:18:06.980Z,1010.62
2017-08-20T10:19:08.410Z,1010.69
2017-08-20T10:20:09.843Z,1010.76
2017-08-20T10:21:11.390Z,1010.71
2017-08-20T10:22:12.822Z,1010.72
2017-08-20T10:23:14.251Z,1010.72
2017-08-20T10:24:15.684Z,1010.77
2017-08-20T10:25:17.111Z,1010.72
2017-08-20T10:26:18.543Z,1010.68
2017-08-20T10:27:19.979Z,1010.74
2017-08-20T10:28:21.422Z,1010.76
2017-08-20T10:29:22.893Z,1010.84
2017-08-20T10:30:24.457Z,1010.86
2017-08-20T10:31:25.884Z,1010.86
2017-08-20T10:32:27.328Z,1010.88
2017-08-20T10:33:28.767Z,1010.88
2017-08-20T10:34:30.194Z,1010.90
2017-08-20T10:35:31.628Z,1010.92
2017-08-20T10:36:33.066Z,1010.97
2017-08-20T10:37:34.496Z,1010.92
2017-08-20T10:38:35.926Z,1010.96
2017-08-20T10:39:37.356Z,1010.90
2017-08-20T10:40:38.788Z,1010.91
2017-08-20T10:41:40.976Z,1010.97
2017-08-20T10:42:42.415Z,1011.01
2017-08-20T10:43:43.848Z,1011.02
2017-08-20T10:44:45.280Z,1010.96
2017-08-20T10:45:46.712Z,1010.99
2017-08-20T10:46:48.142Z,1011.02
2017-08-20T10:47:49.588Z,1010.95
2017-08-20T10:48:51.024Z,1010.98
2017-08-20T10:49:52.454Z,1011.02
2017-08-20T10:50:53.902Z,1011.07
2017-08-20T10:51:55.334Z,1011.16
2017-08-20T10:52:56.763Z,1011.17
2017-08-20T10:53:58.186Z,1011.19
2017-08-20T10:54:59.623Z,1011.16
2017-08-20T10:56:01.085Z,1011.14
2017-08-20T10:57:02.781Z,1011.06
2017-08-20T10:58:04.216Z,1011.20
2017-08-20T10:59:05.652Z,1011.22
2017-08-20T11:00:07.084Z,1011.19
2017-08-20T11:01:08.524Z,1011.20
2017-08-20T11:02:10.133Z,1011.22
2017-08-20T11:03:11.426Z,1011.25
2017-08-20T11:04:12.864Z,1011.34
2017-08-20T11:05:14.299Z,1011.36
2017-08-20T11:06:15.734Z,1011.35
2017-08-20T11:07:17.170Z,1011.32
2017-08-20T11:08:18.603Z,1011.31
2017-08-20T11:09:20.038Z,1011.31
2017-08-20T11:10:21.475Z,1011.30
2017-08-20T11:11:22.906Z,1011.29
2017-08-20T11:12:24.339Z,1011.27
2017-08-20T11:13:25.777Z,1011.28
2017-08-20T11:14:27.271Z,1011.25
2017-08-20T11:15:28.699Z,1011.29
2017-08-20T11:16:30.145Z,1011.34
2017-08-20T11:17:31.583Z,1011.28
2017-08-20T11:18:33.019Z,1011.33
2017-08-20T11:19:34.458Z,1011.34
2017-08-20T11:20:35.892Z,1011.33
2017-08-20T11:21:37.329Z,1011.42
2017-08-20T11:22:38.758Z,1011.39
2017-08-20T11:23:40.228Z,1011.32
2017-08-20T11:24:41.663Z,1011.39
2017-08-20T11:25:43.666Z,1011.40
2017-08-20T11:26:45.101Z,1011.39
2017-08-20T11:27:46.596Z,1011.38
2017-08-20T11:28:48.075Z,1011.43
2017-08-20T11:29:49.544Z,1011.40
2017-08-20T11:30:51.134Z,1011.45
2017-08-20T11:31:52.552Z,1011.45
2017-08-20T11:32:53.990Z,1011.39
2017-08-20T11:33:55.427Z,1011.38
2017-08-20T11:34:56.854Z,1011.31
2017-08-20T11:35:58.301Z,1011.30
2017-08-20T11:36:59.737Z,1011.39
2017-08-20T11:38:01.162Z,1011.42
2017-08-20T11:39:02.608Z,1011.46
2017-08-20T11:40:04.040Z,1011.53
2017-08-20T11:41:05.490Z,1011.37
2017-08-20T11:42:06.916Z,1011.43
2017-08-20T11:43:08.354Z,1011.45
2017-08-20T11:44:12.743Z,1011.46
2017-08-20T11:45:14.833Z,1011.55
2017-08-20T11:46:16.265Z,1011.66
2017-08-20T11:47:17.705Z,1011.66
2017-08-20T11:48:19.136Z,1011.57
2017-08-20T11:49:20.572Z,1011.52
2017-08-20T11:50:22.002Z,1011.50
2017-08-20T11:51:25.781Z,1011.57
2017-08-20T11:52:27.213Z,1011.58
2017-08-20T11:53:28.650Z,1011.65
2017-08-20T11:54:30.084Z,1011.64
2017-08-20T11:55:31.521Z,1011.71
2017-08-20T11:56:32.952Z,1011.70
2017-08-20T11:57:34.402Z,1011.72
2017-08-20T11:58:35.827Z,1011.72
2017-08-20T11:59:37.261Z,1011.71
2017-08-20T12:00:38.729Z,1011.71
2017-08-20T12:01:40.165Z,1011.78
2017-08-20T12:02:41.603Z,1011.74
2017-08-20T12:03:43.042Z,1011.76
2017-08-20T12:04:44.470Z,1011.79
2017-08-20T12:05:45.893Z,1011.76
2017-08-20T12:06:47.329Z,1011.79
2017-08-20T12:07:48.763Z,1011.73
2017-08-20T12:08:50.206Z,1011.77
2017-08-20T12:09:51.634Z,1011.77
2017-08-20T12:10:53.074Z,1011.78
2017-08-20T12:11:54.518Z,1011.76
2017-08-20T12:12:55.956Z,1011.71
2017-08-20T12:13:57.387Z,1011.68
2017-08-20T12:14:58.824Z,1011.69
2017-08-20T12:16:00.265Z,1011.71
2017-08-20T12:17:01.703Z,1011.69
2017-08-20T12:18:03.134Z,1011.71
2017-08-20T12:19:04.576Z,1011.71
2017-08-20T12:20:06.003Z,1011.71
2017-08-20T12:21:07.433Z,1011.68
2017-08-20T12:22:08.865Z,1011.79
2017-08-20T12:23:10.312Z,1011.87